createdAt,value
2019-05-02T00:02:52.950Z,62.40
2019-05-02T00:08:22.971Z,62.50
2019-05-02T00:13:53.980Z,62.70
2019-05-02T00:19:23.388Z,62.70
2019-05-02T00:24:52.892Z,62.90
2019-05-02T00:30:22.619Z,62.90
2019-05-02T00:35:52.069Z,63.00
2019-05-02T00:41:21.513Z,63.10
2019-05-02T00:46:51.266Z,63.00
2019-05-02T00:52:20.885Z,63.20
2019-05-02T00:57:50.866Z,63.30
2019-05-02T01:03:22.274Z,63.40
2019-05-02T01:08:51.783Z,63.30
2019-05-02T01:14:21.294Z,63.30
2019-05-02T01:19:51.579Z,63.60
2019-05-02T01:25:22.150Z,63.80
2019-05-02T01:31:13.079Z,64.00
2019-05-02T01:36:45.675Z,64.20
2019-05-02T01:42:15.257Z,64.30
2019-05-02T01:47:44.780Z,64.50
2019-05-02T01:53:14.242Z,64.60
2019-05-02T01:58:43.747Z,64.60
2019-05-02T02:04:16.292Z,64.80
2019-05-02T02:09:46.314Z,64.60
2019-05-02T02:15:16.069Z,64.70
2019-05-02T02:20:56.349Z,64.70
2019-05-02T02:26:25.786Z,64.70
2019-05-02T02:31:55.259Z,64.60
2019-05-02T02:37:24.556Z,64.60
2019-05-02T02:42:53.960Z,64.60
2019-05-02T02:48:23.727Z,64.60
2019-05-02T02:54:02.826Z,64.60
2019-05-02T02:59:26.273Z,64.50
2019-05-02T03:04:55.446Z,64.60
2019-05-02T03:10:24.842Z,64.60
2019-05-02T03:16:07.007Z,64.70
2019-05-02T03:21:38.885Z,65.40
2019-05-02T03:27:08.373Z,64.90
2019-05-02T03:32:37.967Z,64.90
2019-05-02T03:38:07.447Z,64.90
2019-05-02T03:43:37.064Z,64.90
2019-05-02T03:49:09.387Z,64.90
2019-05-02T03:54:49.084Z,65.00
2019-05-02T04:00:13.609Z,65.00
2019-05-02T04:05:42.238Z,65.00
2019-05-02T04:11:21.238Z,65.00
2019-05-02T04:16:55.293Z,65.00
2019-05-02T04:22:22.988Z,65.00
2019-05-02T04:27:52.627Z,65.10
2019-05-02T04:33:22.249Z,65.10
2019-05-02T04:38:52.621Z,65.10
2019-05-02T04:44:29.872Z,65.10
2019-05-02T04:49:53.917Z,65.10
2019-05-02T04:55:29.952Z,65.00
2019-05-02T05:01:01.007Z,64.80
2019-05-02T05:06:27.755Z,64.60
2019-05-02T05:12:07.050Z,64.30
2019-05-02T05:17:37.542Z,64.10
2019-05-02T05:23:08.210Z,63.80
2019-05-02T05:28:40.569Z,63.60
2019-05-02T05:34:09.834Z,63.10
2019-05-02T05:39:43.060Z,62.90
2019-05-02T05:45:13.737Z,62.30
2019-05-02T05:50:42.115Z,60.90
2019-05-02T05:56:11.588Z,60.40
2019-05-02T06:01:41.066Z,59.70
2019-05-02T06:07:10.482Z,59.20
2019-05-02T06:12:39.871Z,59.00
2019-05-02T06:18:09.308Z,59.30
2019-05-02T06:23:41.383Z,58.30
2019-05-02T06:29:12.950Z,57.40
2019-05-02T06:34:46.489Z,57.30
2019-05-02T06:40:12.613Z,56.90
2019-05-02T06:45:42.111Z,57.00
2019-05-02T06:51:19.658Z,56.00
2019-05-02T06:56:43.189Z,55.30
2019-05-02T07:02:14.065Z,54.10
2019-05-02T07:07:43.792Z,53.00
2019-05-02T07:13:15.041Z,52.30
2019-05-02T07:18:47.685Z,51.80
2019-05-02T07:24:17.725Z,51.80
2019-05-02T07:29:47.290Z,51.50
2019-05-02T07:35:19.304Z,51.00
2019-05-02T07:40:48.301Z,51.30
2019-05-02T07:46:21.035Z,49.70
2019-05-02T07:51:52.265Z,49.70
2019-05-02T07:57:25.273Z,48.80
2019-05-02T08:02:57.911Z,48.40
2019-05-02T08:08:24.992Z,49.40
2019-05-02T08:14:00.310Z,47.90
2019-05-02T08:19:26.951Z,47.90
2019-05-02T08:24:56.302Z,47.60
2019-05-02T08:30:27.809Z,47.00
2019-05-02T08:35:57.402Z,45.50
2019-05-02T08:41:26.992Z,45.20
2019-05-02T08:46:56.661Z,44.50
2019-05-02T08:52:26.164Z,43.80
2019-05-02T08:57:55.698Z,43.70
2019-05-02T09:03:25.112Z,43.70
2019-05-02T09:08:54.526Z,43.90
2019-05-02T09:14:23.976Z,43.40
2019-05-02T09:20:02.148Z,42.30
2019-05-02T09:25:24.745Z,43.20
2019-05-02T09:30:57.479Z,42.90
2019-05-02T09:36:25.217Z,43.80
2019-05-02T09:41:54.720Z,41.90
2019-05-02T09:47:27.425Z,41.90
2019-05-02T09:52:57.084Z,40.90
2019-05-02T09:58:26.555Z,40.80
2019-05-02T10:03:56.068Z,41.60
2019-05-02T10:09:27.192Z,41.30
2019-05-02T10:15:02.859Z,40.60
2019-05-02T10:20:36.215Z,40.00
2019-05-02T10:26:03.794Z,40.50
2019-05-02T10:31:37.471Z,40.90
2019-05-02T10:37:08.905Z,40.20
2019-05-02T10:42:38.720Z,41.90
2019-05-02T10:48:21.501Z,39.70
2019-05-02T10:53:39.569Z,40.10
2019-05-02T10:59:08.984Z,40.00
2019-05-02T11:04:42.102Z,39.70
2019-05-02T11:10:12.307Z,40.20
2019-05-02T11:16:01.921Z,40.00
2019-05-02T11:21:32.223Z,38.90
2019-05-02T11:27:02.235Z,39.20
2019-05-02T11:32:32.675Z,38.80
2019-05-02T11:38:48.290Z,37.70
2019-05-02T11:43:55.850Z,37.90
2019-05-02T11:49:25.223Z,37.30
2019-05-02T11:54:54.538Z,36.20
2019-05-02T12:00:23.850Z,34.60
2019-05-02T12:05:53.148Z,32.90
2019-05-02T12:11:23.059Z,33.10
2019-05-02T12:16:52.825Z,31.70
2019-05-02T12:22:22.595Z,30.00
2019-05-02T12:27:52.687Z,33.30
2019-05-02T12:33:23.764Z,29.80
2019-05-02T12:38:53.120Z,28.80
2019-05-02T12:44:23.935Z,28.50
2019-05-02T12:49:53.221Z,30.30
2019-05-02T12:55:22.513Z,29.30
2019-05-02T13:00:53.091Z,29.60
2019-05-02T13:06:22.706Z,30.50
2019-05-02T13:11:53.625Z,31.00
2019-05-02T13:17:23.022Z,29.10
2019-05-02T13:22:57.003Z,29.00
2019-05-02T13:28:26.355Z,30.80
2019-05-02T13:34:06.511Z,30.10
2019-05-02T13:39:35.881Z,29.10
2019-05-02T13:45:12.938Z,28.10
2019-05-02T13:50:42.443Z,27.20
2019-05-02T13:56:22.128Z,27.90
2019-05-02T14:01:53.594Z,26.60
2019-05-02T14:07:22.879Z,27.20
2019-05-02T14:12:56.487Z,26.50
2019-05-02T14:18:29.033Z,26.20
2019-05-02T14:23:56.834Z,27.10
2019-05-02T14:29:26.115Z,27.70
2019-05-02T14:34:57.059Z,26.70
2019-05-02T14:40:27.994Z,26.80
2019-05-02T14:45:57.703Z,24.90
2019-05-02T14:51:28.251Z,24.00
2019-05-02T14:57:02.134Z,23.60
2019-05-02T15:02:39.311Z,21.60
2019-05-02T15:08:07.223Z,22.70
2019-05-02T15:13:40.959Z,24.40
2019-05-02T15:19:09.264Z,24.50
2019-05-02T15:24:38.577Z,25.30
2019-05-02T15:30:08.343Z,25.80
2019-05-02T15:35:39.259Z,26.10
2019-05-02T15:41:12.637Z,26.50
2019-05-02T15:46:40.263Z,26.70
2019-05-02T15:52:12.551Z,27.50
2019-05-02T15:57:45.866Z,28.00
2019-05-02T16:03:12.963Z,28.40
2019-05-02T16:08:48.089Z,28.20
2019-05-02T16:14:17.403Z,28.50
2019-05-02T16:19:49.598Z,28.90
2019-05-02T16:25:20.130Z,29.50
2019-05-02T16:30:52.562Z,30.00
2019-05-02T16:36:30.144Z,30.40
2019-05-02T16:41:53.063Z,30.40
2019-05-02T16:47:22.286Z,31.00
2019-05-02T16:52:53.114Z,31.90
2019-05-02T16:58:22.667Z,32.10
2019-05-02T17:03:53.080Z,33.00
2019-05-02T17:09:42.396Z,33.80
2019-05-02T17:15:31.348Z,34.20
2019-05-02T17:21:01.698Z,34.80
2019-05-02T17:26:31.789Z,35.20
2019-05-02T17:32:02.227Z,35.70
2019-05-02T17:37:32.577Z,36.70
2019-05-02T17:43:06.588Z,36.50
2019-05-02T17:48:34.747Z,37.20
2019-05-02T17:54:04.072Z,37.80
2019-05-02T17:59:36.634Z,38.70
2019-05-02T18:05:06.263Z,38.60
2019-05-02T18:10:36.206Z,38.90
2019-05-02T18:16:12.212Z,39.30
2019-05-02T18:21:36.867Z,42.20
2019-05-02T18:27:06.452Z,42.80
2019-05-02T18:32:35.747Z,45.00
2019-05-02T18:38:05.399Z,46.70
2019-05-02T18:43:36.109Z,47.60
2019-05-02T18:49:05.860Z,48.50
2019-05-02T18:54:38.638Z,47.80
2019-05-02T19:00:08.884Z,47.60
2019-05-02T19:05:38.212Z,48.20
2019-05-02T19:17:03.554Z,49.00
2019-05-02T19:22:32.189Z,49.40
2019-05-02T19:28:03.435Z,49.40
2019-05-02T19:33:37.589Z,49.50
2019-05-02T19:39:09.524Z,50.40
2019-05-02T19:44:37.687Z,50.80
2019-05-02T19:50:31.904Z,51.20
2019-05-02T19:56:03.047Z,51.70
2019-05-02T20:01:32.788Z,52.50
2019-05-02T20:07:02.517Z,52.90
2019-05-02T20:12:31.939Z,54.00
2019-05-02T20:18:04.645Z,54.80
2019-05-02T20:23:35.868Z,55.10
2019-05-02T20:29:12.496Z,56.00
2019-05-02T20:34:43.359Z,56.40
2019-05-02T20:40:33.815Z,56.60
2019-05-02T20:46:03.501Z,57.00
2019-05-02T20:51:32.984Z,57.70
2019-05-02T20:57:04.370Z,58.80
2019-05-02T21:02:34.834Z,60.10
2019-05-02T21:08:19.102Z,61.90
2019-05-02T21:13:48.875Z,64.10
2019-05-02T21:19:21.641Z,66.60
2019-05-02T21:24:52.857Z,67.60
2019-05-02T21:30:25.378Z,69.00
2019-05-02T21:35:55.119Z,69.60
2019-05-02T21:41:25.882Z,70.20
2019-05-02T21:46:56.633Z,70.70
2019-05-02T21:52:42.788Z,71.10
2019-05-02T21:58:14.348Z,70.80
2019-05-02T22:03:45.446Z,71.20
2019-05-02T22:09:17.950Z,71.60
2019-05-02T22:14:47.607Z,73.00
2019-05-02T22:20:17.080Z,74.00
2019-05-02T22:25:46.752Z,74.60
2019-05-02T22:31:16.684Z,76.10
2019-05-02T22:36:46.123Z,76.10
2019-05-02T22:42:16.211Z,76.70
2019-05-02T22:47:45.782Z,77.70
2019-05-02T22:53:15.270Z,77.70
2019-05-02T22:58:44.658Z,78.30
2019-05-02T23:04:14.947Z,79.50
2019-05-02T23:09:46.068Z,79.90
2019-05-02T23:15:15.658Z,80.70
2019-05-02T23:20:45.101Z,80.60
2019-05-02T23:26:18.337Z,81.00
2019-05-02T23:31:48.041Z,81.00
2019-05-02T23:37:17.718Z,81.80
2019-05-02T23:42:48.375Z,81.60
2019-05-02T23:48:18.212Z,81.60
2019-05-02T23:53:47.695Z,81.80
2019-05-02T23:59:17.221Z,81.60
